11LL weather

Thacker Airport
Chenoa, Illinois, United States

Public forecast

Using degrees Fahrenheit for public forecast. Weather courtesy of forecast.io.

Closest aviation weather report (METAR) to Thacker Airport

Closest report is Pontiac Municipal Airport, 13.8 nm (25.6 km) NNE. Retrieved 2019/10/21 01:35 UTC (8 minutes ago):

KPNT 210135Z AUTO 08005KT 7SM CLR 11/10 A2989 RMK AO2 T01100098

Closest aviation forecast (TAF) to Thacker Airport

Closest forecast is Central Illinois Regional Airport at Bloomington-Normal, 16.2 nm (30.0 km) SSW. Retrieved 2019-10-21 00:48 UTC (55 minutes ago):

TAF KBMI 202345Z 2100/2124 11009KT P6SM OVC250 FM211000 12010G20KT P6SM VCSH OVC035 FM211200 14014G24KT 5SM -SHRA VCTS OVC015CB FM211600 15016G26KT P6SM OVC025 FM211900 22022G32KT P6SM SCT250